sensor_id;sensor_type;location;lat;lon;timestamp;P1;durP1;ratioP1;P2;durP2;ratioP2
14139;SDS011;7150;53.514;9.988;2024-03-02T00:00:19;15.23;;;9.87;;
14139;SDS011;7150;53.514;9.988;2024-03-02T00:02:46;13.30;;;8.83;;
14139;SDS011;7150;53.514;9.988;2024-03-02T00:05:18;16.30;;;9.40;;
14139;SDS011;7150;53.514;9.988;2024-03-02T00:07:55;15.47;;;8.90;;
14139;SDS011;7150;53.514;9.988;2024-03-02T00:10:22;16.47;;;9.73;;
14139;SDS011;7150;53.514;9.988;2024-03-02T00:12:56;15.20;;;10.10;;
14139;SDS011;7150;53.514;9.988;2024-03-02T00:15:41;16.87;;;9.97;;
14139;SDS011;7150;53.514;9.988;2024-03-02T00:18:11;16.37;;;9.87;;
14139;SDS011;7150;53.514;9.988;2024-03-02T00:20:38;17.00;;;10.37;;
14139;SDS011;7150;53.514;9.988;2024-03-02T00:23:05;18.27;;;10.90;;
14139;SDS011;7150;53.514;9.988;2024-03-02T00:25:38;17.33;;;10.40;;
14139;SDS011;7150;53.514;9.988;2024-03-02T00:28:05;16.70;;;10.57;;
14139;SDS011;7150;53.514;9.988;2024-03-02T00:33:27;19.17;;;10.70;;
14139;SDS011;7150;53.514;9.988;2024-03-02T00:35:58;22.30;;;12.33;;
14139;SDS011;7150;53.514;9.988;2024-03-02T00:38:28;18.80;;;11.30;;
14139;SDS011;7150;53.514;9.988;2024-03-02T00:40:54;20.83;;;12.13;;
14139;SDS011;7150;53.514;9.988;2024-03-02T00:46:12;18.63;;;10.73;;
14139;SDS011;7150;53.514;9.988;2024-03-02T00:48:41;19.53;;;11.73;;
14139;SDS011;7150;53.514;9.988;2024-03-02T00:51:17;20.57;;;12.63;;
14139;SDS011;7150;53.514;9.988;2024-03-02T00:53:43;21.43;;;12.97;;
14139;SDS011;7150;53.514;9.988;2024-03-02T00:56:09;18.30;;;11.30;;
14139;SDS011;7150;53.514;9.988;2024-03-02T00:58:36;20.97;;;12.63;;
14139;SDS011;7150;53.514;9.988;2024-03-02T01:01:02;20.37;;;12.33;;
14139;SDS011;7150;53.514;9.988;2024-03-02T01:03:28;21.60;;;13.00;;
14139;SDS011;7150;53.514;9.988;2024-03-02T01:05:53;19.60;;;12.10;;
14139;SDS011;7150;53.514;9.988;2024-03-02T01:08:19;22.97;;;12.30;;
14139;SDS011;7150;53.514;9.988;2024-03-02T01:10:44;22.10;;;13.70;;
14139;SDS011;7150;53.514;9.988;2024-03-02T01:13:09;27.87;;;14.10;;
14139;SDS011;7150;53.514;9.988;2024-03-02T01:15:35;24.07;;;14.23;;
14139;SDS011;7150;53.514;9.988;2024-03-02T01:18:01;27.60;;;14.73;;
14139;SDS011;7150;53.514;9.988;2024-03-02T01:20:26;26.77;;;14.47;;
14139;SDS011;7150;53.514;9.988;2024-03-02T01:22:52;27.77;;;15.50;;
14139;SDS011;7150;53.514;9.988;2024-03-02T01:25:18;25.30;;;14.67;;
14139;SDS011;7150;53.514;9.988;2024-03-02T01:27:43;25.97;;;14.20;;
14139;SDS011;7150;53.514;9.988;2024-03-02T01:30:09;28.23;;;16.17;;
14139;SDS011;7150;53.514;9.988;2024-03-02T01:32:37;25.43;;;14.50;;
14139;SDS011;7150;53.514;9.988;2024-03-02T01:35:03;23.50;;;13.93;;
14139;SDS011;7150;53.514;9.988;2024-03-02T01:37:29;24.87;;;15.80;;
14139;SDS011;7150;53.514;9.988;2024-03-02T01:39:55;24.80;;;13.97;;
14139;SDS011;7150;53.514;9.988;2024-03-02T01:42:20;22.80;;;13.90;;
14139;SDS011;7150;53.514;9.988;2024-03-02T01:44:45;22.90;;;13.77;;
14139;SDS011;7150;53.514;9.988;2024-03-02T01:47:11;26.43;;;15.17;;
14139;SDS011;7150;53.514;9.988;2024-03-02T01:49:37;25.10;;;14.93;;
14139;SDS011;7150;53.514;9.988;2024-03-02T01:52:03;23.20;;;14.93;;
14139;SDS011;7150;53.514;9.988;2024-03-02T01:54:29;26.07;;;15.43;;
14139;SDS011;7150;53.514;9.988;2024-03-02T01:56:55;24.93;;;15.10;;
14139;SDS011;7150;53.514;9.988;2024-03-02T01:59:20;26.37;;;14.00;;
14139;SDS011;7150;53.514;9.988;2024-03-02T02:01:46;28.53;;;14.93;;
14139;SDS011;7150;53.514;9.988;2024-03-02T02:04:11;26.00;;;15.83;;
14139;SDS011;7150;53.514;9.988;2024-03-02T02:06:38;26.80;;;15.33;;
14139;SDS011;7150;53.514;9.988;2024-03-02T02:09:04;28.70;;;15.90;;
14139;SDS011;7150;53.514;9.988;2024-03-02T02:11:29;28.17;;;16.40;;
14139;SDS011;7150;53.514;9.988;2024-03-02T02:13:55;25.37;;;14.83;;
14139;SDS011;7150;53.514;9.988;2024-03-02T02:16:20;26.83;;;15.43;;
14139;SDS011;7150;53.514;9.988;2024-03-02T02:18:46;29.00;;;16.07;;
14139;SDS011;7150;53.514;9.988;2024-03-02T02:21:12;27.10;;;15.27;;
14139;SDS011;7150;53.514;9.988;2024-03-02T02:23:37;24.97;;;15.07;;
14139;SDS011;7150;53.514;9.988;2024-03-02T02:26:03;26.93;;;16.27;;
14139;SDS011;7150;53.514;9.988;2024-03-02T02:28:28;26.43;;;14.93;;
14139;SDS011;7150;53.514;9.988;2024-03-02T02:30:54;27.23;;;15.53;;
14139;SDS011;7150;53.514;9.988;2024-03-02T02:33:21;27.60;;;15.40;;
14139;SDS011;7150;53.514;9.988;2024-03-02T02:35:46;27.30;;;15.67;;
14139;SDS011;7150;53.514;9.988;2024-03-02T02:38:12;27.97;;;15.87;;
14139;SDS011;7150;53.514;9.988;2024-03-02T02:40:37;27.47;;;15.53;;
14139;SDS011;7150;53.514;9.988;2024-03-02T02:43:03;25.30;;;15.57;;
14139;SDS011;7150;53.514;9.988;2024-03-02T02:45:28;28.47;;;15.60;;
14139;SDS011;7150;53.514;9.988;2024-03-02T02:47:54;29.23;;;15.97;;
14139;SDS011;7150;53.514;9.988;2024-03-02T02:50:19;26.20;;;15.47;;
14139;SDS011;7150;53.514;9.988;2024-03-02T02:52:45;28.40;;;15.70;;
14139;SDS011;7150;53.514;9.988;2024-03-02T02:55:11;28.67;;;15.77;;
14139;SDS011;7150;53.514;9.988;2024-03-02T02:57:39;30.07;;;16.27;;
14139;SDS011;7150;53.514;9.988;2024-03-02T03:00:07;27.00;;;15.13;;
14139;SDS011;7150;53.514;9.988;2024-03-02T03:02:41;25.57;;;15.57;;
14139;SDS011;7150;53.514;9.988;2024-03-02T03:05:08;27.33;;;15.53;;
14139;SDS011;7150;53.514;9.988;2024-03-02T03:07:35;27.23;;;16.23;;
14139;SDS011;7150;53.514;9.988;2024-03-02T03:10:02;30.27;;;17.00;;
14139;SDS011;7150;53.514;9.988;2024-03-02T03:12:29;28.07;;;14.73;;
14139;SDS011;7150;53.514;9.988;2024-03-02T03:14:55;26.97;;;15.70;;
14139;SDS011;7150;53.514;9.988;2024-03-02T03:17:23;25.23;;;15.23;;
14139;SDS011;7150;53.514;9.988;2024-03-02T03:19:49;29.90;;;16.30;;
14139;SDS011;7150;53.514;9.988;2024-03-02T03:22:15;27.50;;;16.50;;
14139;SDS011;7150;53.514;9.988;2024-03-02T03:24:41;27.10;;;15.57;;
14139;SDS011;7150;53.514;9.988;2024-03-02T03:27:06;30.00;;;16.90;;
14139;SDS011;7150;53.514;9.988;2024-03-02T03:29:32;24.07;;;14.67;;
14139;SDS011;7150;53.514;9.988;2024-03-02T03:31:57;25.83;;;14.77;;
14139;SDS011;7150;53.514;9.988;2024-03-02T03:34:23;23.00;;;14.70;;
14139;SDS011;7150;53.514;9.988;2024-03-02T03:36:48;29.97;;;16.17;;
14139;SDS011;7150;53.514;9.988;2024-03-02T03:39:14;27.77;;;15.03;;
14139;SDS011;7150;53.514;9.988;2024-03-02T03:41:42;26.93;;;15.63;;
14139;SDS011;7150;53.514;9.988;2024-03-02T03:44:08;26.57;;;15.23;;
14139;SDS011;7150;53.514;9.988;2024-03-02T03:46:33;30.10;;;15.93;;
14139;SDS011;7150;53.514;9.988;2024-03-02T03:48:58;30.33;;;17.17;;
14139;SDS011;7150;53.514;9.988;2024-03-02T03:51:24;28.77;;;15.40;;
14139;SDS011;7150;53.514;9.988;2024-03-02T03:53:49;24.53;;;14.93;;
14139;SDS011;7150;53.514;9.988;2024-03-02T03:56:15;28.97;;;15.30;;
14139;SDS011;7150;53.514;9.988;2024-03-02T03:58:40;26.30;;;15.10;;
14139;SDS011;7150;53.514;9.988;2024-03-02T04:01:06;24.70;;;15.73;;
14139;SDS011;7150;53.514;9.988;2024-03-02T04:03:31;27.10;;;16.57;;
14139;SDS011;7150;53.514;9.988;2024-03-02T04:05:57;28.37;;;17.03;;
14139;SDS011;7150;53.514;9.988;2024-03-02T04:08:22;24.37;;;14.80;;
14139;SDS011;7150;53.514;9.988;2024-03-02T04:10:48;27.57;;;16.20;;
14139;SDS011;7150;53.514;9.988;2024-03-02T04:13:13;25.40;;;15.63;;
14139;SDS011;7150;53.514;9.988;2024-03-02T04:15:39;27.17;;;15.47;;
14139;SDS011;7150;53.514;9.988;2024-03-02T04:18:05;26.13;;;14.70;;
14139;SDS011;7150;53.514;9.988;2024-03-02T04:20:31;25.43;;;14.90;;
14139;SDS011;7150;53.514;9.988;2024-03-02T04:22:56;24.83;;;14.13;;
14139;SDS011;7150;53.514;9.988;2024-03-02T04:25:22;28.23;;;15.47;;
14139;SDS011;7150;53.514;9.988;2024-03-02T04:27:48;30.20;;;14.60;;
14139;SDS011;7150;53.514;9.988;2024-03-02T04:30:13;30.07;;;16.77;;
14139;SDS011;7150;53.514;9.988;2024-03-02T04:32:39;27.37;;;14.93;;
14139;SDS011;7150;53.514;9.988;2024-03-02T04:35:04;25.90;;;16.37;;
14139;SDS011;7150;53.514;9.988;2024-03-02T04:37:34;27.07;;;15.60;;
14139;SDS011;7150;53.514;9.988;2024-03-02T04:39:59;23.20;;;14.50;;
14139;SDS011;7150;53.514;9.988;2024-03-02T04:42:25;25.13;;;15.07;;
14139;SDS011;7150;53.514;9.988;2024-03-02T04:44:50;24.07;;;14.00;;
14139;SDS011;7150;53.514;9.988;2024-03-02T04:47:16;24.37;;;15.00;;
14139;SDS011;7150;53.514;9.988;2024-03-02T04:49:41;25.20;;;14.90;;
14139;SDS011;7150;53.514;9.988;2024-03-02T04:52:07;23.57;;;14.10;;
14139;SDS011;7150;53.514;9.988;2024-03-02T04:54:32;25.07;;;15.50;;
14139;SDS011;7150;53.514;9.988;2024-03-02T04:57:18;25.17;;;15.07;;
14139;SDS011;7150;53.514;9.988;2024-03-02T04:59:43;26.03;;;15.30;;
14139;SDS011;7150;53.514;9.988;2024-03-02T05:02:09;26.03;;;15.20;;
14139;SDS011;7150;53.514;9.988;2024-03-02T05:04:34;24.57;;;15.03;;
14139;SDS011;7150;53.514;9.988;2024-03-02T05:07:00;23.40;;;14.33;;
14139;SDS011;7150;53.514;9.988;2024-03-02T05:09:25;25.67;;;14.73;;
14139;SDS011;7150;53.514;9.988;2024-03-02T05:11:51;26.33;;;15.03;;
14139;SDS011;7150;53.514;9.988;2024-03-02T05:14:42;24.90;;;14.43;;
14139;SDS011;7150;53.514;9.988;2024-03-02T05:17:07;30.43;;;16.60;;
14139;SDS011;7150;53.514;9.988;2024-03-02T05:19:33;21.87;;;13.43;;
14139;SDS011;7150;53.514;9.988;2024-03-02T05:21:58;25.10;;;14.03;;
14139;SDS011;7150;53.514;9.988;2024-03-02T05:24:24;23.27;;;14.80;;
14139;SDS011;7150;53.514;9.988;2024-03-02T05:26:52;26.67;;;15.80;;
14139;SDS011;7150;53.514;9.988;2024-03-02T05:29:17;24.27;;;14.23;;
14139;SDS011;7150;53.514;9.988;2024-03-02T05:31:43;23.87;;;14.60;;
14139;SDS011;7150;53.514;9.988;2024-03-02T05:34:09;26.40;;;15.93;;
14139;SDS011;7150;53.514;9.988;2024-03-02T05:36:34;25.33;;;15.20;;
14139;SDS011;7150;53.514;9.988;2024-03-02T05:39:00;23.33;;;14.17;;
14139;SDS011;7150;53.514;9.988;2024-03-02T05:41:26;20.90;;;13.83;;
14139;SDS011;7150;53.514;9.988;2024-03-02T05:43:51;24.57;;;14.40;;
14139;SDS011;7150;53.514;9.988;2024-03-02T05:46:17;24.10;;;14.93;;
14139;SDS011;7150;53.514;9.988;2024-03-02T05:48:42;26.43;;;13.67;;
14139;SDS011;7150;53.514;9.988;2024-03-02T05:51:08;24.20;;;14.37;;
14139;SDS011;7150;53.514;9.988;2024-03-02T05:53:33;27.93;;;14.97;;
14139;SDS011;7150;53.514;9.988;2024-03-02T05:55:59;26.70;;;15.13;;
14139;SDS011;7150;53.514;9.988;2024-03-02T05:58:24;22.93;;;14.70;;
14139;SDS011;7150;53.514;9.988;2024-03-02T06:01:08;25.93;;;15.67;;
14139;SDS011;7150;53.514;9.988;2024-03-02T06:03:34;26.80;;;15.47;;
14139;SDS011;7150;53.514;9.988;2024-03-02T06:05:59;27.73;;;15.10;;
14139;SDS011;7150;53.514;9.988;2024-03-02T06:08:25;27.57;;;14.93;;
14139;SDS011;7150;53.514;9.988;2024-03-02T06:10:50;21.10;;;14.00;;
14139;SDS011;7150;53.514;9.988;2024-03-02T06:13:16;22.13;;;13.83;;
14139;SDS011;7150;53.514;9.988;2024-03-02T06:15:41;24.13;;;13.53;;
14139;SDS011;7150;53.514;9.988;2024-03-02T06:18:07;28.30;;;14.17;;
14139;SDS011;7150;53.514;9.988;2024-03-02T06:20:32;23.47;;;14.53;;
14139;SDS011;7150;53.514;9.988;2024-03-02T06:22:58;21.90;;;14.23;;
14139;SDS011;7150;53.514;9.988;2024-03-02T06:25:24;23.10;;;14.50;;
14139;SDS011;7150;53.514;9.988;2024-03-02T06:27:49;24.57;;;13.93;;
14139;SDS011;7150;53.514;9.988;2024-03-02T06:30:15;22.83;;;13.60;;
14139;SDS011;7150;53.514;9.988;2024-03-02T06:32:40;23.77;;;14.47;;
14139;SDS011;7150;53.514;9.988;2024-03-02T06:35:06;26.23;;;15.20;;
14139;SDS011;7150;53.514;9.988;2024-03-02T06:37:35;23.77;;;14.80;;
14139;SDS011;7150;53.514;9.988;2024-03-02T06:40:05;26.03;;;14.70;;
14139;SDS011;7150;53.514;9.988;2024-03-02T06:42:32;25.50;;;14.77;;
14139;SDS011;7150;53.514;9.988;2024-03-02T06:44:58;24.47;;;14.20;;
14139;SDS011;7150;53.514;9.988;2024-03-02T06:47:24;23.53;;;13.53;;
14139;SDS011;7150;53.514;9.988;2024-03-02T06:49:49;23.27;;;13.33;;
14139;SDS011;7150;53.514;9.988;2024-03-02T06:52:15;23.07;;;13.07;;
14139;SDS011;7150;53.514;9.988;2024-03-02T06:54:41;22.33;;;13.20;;
14139;SDS011;7150;53.514;9.988;2024-03-02T06:57:06;23.70;;;14.47;;
14139;SDS011;7150;53.514;9.988;2024-03-02T06:59:32;24.83;;;14.43;;
14139;SDS011;7150;53.514;9.988;2024-03-02T07:01:58;24.17;;;13.53;;
14139;SDS011;7150;53.514;9.988;2024-03-02T07:04:24;23.53;;;13.97;;
14139;SDS011;7150;53.514;9.988;2024-03-02T07:06:49;22.03;;;13.17;;
14139;SDS011;7150;53.514;9.988;2024-03-02T07:09:16;21.70;;;13.97;;
14139;SDS011;7150;53.514;9.988;2024-03-02T07:11:41;24.03;;;14.30;;
14139;SDS011;7150;53.514;9.988;2024-03-02T07:14:07;23.67;;;13.33;;
14139;SDS011;7150;53.514;9.988;2024-03-02T07:16:32;23.33;;;14.00;;
14139;SDS011;7150;53.514;9.988;2024-03-02T07:18:59;19.57;;;12.97;;
14139;SDS011;7150;53.514;9.988;2024-03-02T07:21:26;25.50;;;14.70;;
14139;SDS011;7150;53.514;9.988;2024-03-02T07:23:52;23.57;;;14.17;;
14139;SDS011;7150;53.514;9.988;2024-03-02T07:26:18;23.20;;;13.13;;
14139;SDS011;7150;53.514;9.988;2024-03-02T07:28:47;21.80;;;13.30;;
14139;SDS011;7150;53.514;9.988;2024-03-02T07:31:14;22.30;;;13.43;;
14139;SDS011;7150;53.514;9.988;2024-03-02T07:33:40;20.97;;;12.63;;
14139;SDS011;7150;53.514;9.988;2024-03-02T07:36:05;24.67;;;14.00;;
14139;SDS011;7150;53.514;9.988;2024-03-02T07:38:32;20.13;;;12.67;;
14139;SDS011;7150;53.514;9.988;2024-03-02T07:40:59;19.77;;;12.27;;
14139;SDS011;7150;53.514;9.988;2024-03-02T07:43:25;21.37;;;12.50;;
14139;SDS011;7150;53.514;9.988;2024-03-02T07:45:51;21.73;;;12.50;;
14139;SDS011;7150;53.514;9.988;2024-03-02T07:48:16;22.33;;;12.87;;
14139;SDS011;7150;53.514;9.988;2024-03-02T07:50:42;22.00;;;13.17;;
14139;SDS011;7150;53.514;9.988;2024-03-02T07:53:08;20.30;;;13.30;;
14139;SDS011;7150;53.514;9.988;2024-03-02T07:55:34;19.80;;;12.40;;
14139;SDS011;7150;53.514;9.988;2024-03-02T07:58:02;21.17;;;12.37;;
14139;SDS011;7150;53.514;9.988;2024-03-02T08:00:28;22.17;;;13.57;;
14139;SDS011;7150;53.514;9.988;2024-03-02T08:02:53;22.43;;;13.43;;
14139;SDS011;7150;53.514;9.988;2024-03-02T08:05:20;21.00;;;13.33;;
14139;SDS011;7150;53.514;9.988;2024-03-02T08:07:46;20.23;;;12.60;;
14139;SDS011;7150;53.514;9.988;2024-03-02T08:10:12;22.27;;;13.67;;
14139;SDS011;7150;53.514;9.988;2024-03-02T08:12:38;23.67;;;13.20;;
14139;SDS011;7150;53.514;9.988;2024-03-02T08:15:04;20.70;;;13.23;;
14139;SDS011;7150;53.514;9.988;2024-03-02T08:17:30;19.63;;;13.07;;
14139;SDS011;7150;53.514;9.988;2024-03-02T08:19:56;22.77;;;13.93;;
14139;SDS011;7150;53.514;9.988;2024-03-02T08:22:22;19.17;;;12.00;;
14139;SDS011;7150;53.514;9.988;2024-03-02T08:24:50;19.67;;;12.67;;
14139;SDS011;7150;53.514;9.988;2024-03-02T08:27:16;21.13;;;13.43;;
14139;SDS011;7150;53.514;9.988;2024-03-02T08:29:41;21.27;;;12.57;;
14139;SDS011;7150;53.514;9.988;2024-03-02T08:32:07;20.60;;;13.33;;
14139;SDS011;7150;53.514;9.988;2024-03-02T08:34:32;17.47;;;10.77;;
14139;SDS011;7150;53.514;9.988;2024-03-02T08:37:00;18.93;;;12.53;;
14139;SDS011;7150;53.514;9.988;2024-03-02T08:39:26;21.97;;;12.97;;
14139;SDS011;7150;53.514;9.988;2024-03-02T08:41:52;18.63;;;12.30;;
14139;SDS011;7150;53.514;9.988;2024-03-02T08:44:18;20.30;;;11.60;;
14139;SDS011;7150;53.514;9.988;2024-03-02T08:46:44;20.97;;;12.10;;
14139;SDS011;7150;53.514;9.988;2024-03-02T08:49:09;21.70;;;12.70;;
14139;SDS011;7150;53.514;9.988;2024-03-02T08:51:35;20.20;;;12.63;;
14139;SDS011;7150;53.514;9.988;2024-03-02T08:54:01;20.40;;;12.33;;
14139;SDS011;7150;53.514;9.988;2024-03-02T08:56:26;17.80;;;11.93;;
14139;SDS011;7150;53.514;9.988;2024-03-02T08:58:52;19.83;;;12.23;;
14139;SDS011;7150;53.514;9.988;2024-03-02T09:01:18;20.33;;;11.97;;
14139;SDS011;7150;53.514;9.988;2024-03-02T09:03:44;17.97;;;11.70;;
14139;SDS011;7150;53.514;9.988;2024-03-02T09:06:10;19.43;;;12.43;;
14139;SDS011;7150;53.514;9.988;2024-03-02T09:08:36;18.97;;;11.80;;
14139;SDS011;7150;53.514;9.988;2024-03-02T09:11:03;19.17;;;12.27;;
14139;SDS011;7150;53.514;9.988;2024-03-02T09:13:29;20.93;;;12.37;;
14139;SDS011;7150;53.514;9.988;2024-03-02T09:15:55;19.80;;;11.27;;
14139;SDS011;7150;53.514;9.988;2024-03-02T09:18:21;19.40;;;12.40;;
14139;SDS011;7150;53.514;9.988;2024-03-02T09:20:46;18.20;;;11.13;;
14139;SDS011;7150;53.514;9.988;2024-03-02T09:23:12;21.10;;;12.47;;
14139;SDS011;7150;53.514;9.988;2024-03-02T09:25:37;17.20;;;11.73;;
14139;SDS011;7150;53.514;9.988;2024-03-02T09:28:03;20.27;;;12.07;;
14139;SDS011;7150;53.514;9.988;2024-03-02T09:30:28;17.50;;;11.67;;
14139;SDS011;7150;53.514;9.988;2024-03-02T09:32:54;19.17;;;11.60;;
14139;SDS011;7150;53.514;9.988;2024-03-02T09:35:19;17.70;;;11.20;;
14139;SDS011;7150;53.514;9.988;2024-03-02T09:37:45;17.07;;;10.93;;
14139;SDS011;7150;53.514;9.988;2024-03-02T09:40:11;16.13;;;10.07;;
14139;SDS011;7150;53.514;9.988;2024-03-02T09:42:37;18.63;;;10.40;;
14139;SDS011;7150;53.514;9.988;2024-03-02T09:45:03;17.43;;;10.30;;
14139;SDS011;7150;53.514;9.988;2024-03-02T09:47:30;15.50;;;9.60;;
14139;SDS011;7150;53.514;9.988;2024-03-02T09:49:55;16.37;;;10.23;;
14139;SDS011;7150;53.514;9.988;2024-03-02T09:52:22;17.17;;;10.67;;
14139;SDS011;7150;53.514;9.988;2024-03-02T09:54:48;17.87;;;10.50;;
14139;SDS011;7150;53.514;9.988;2024-03-02T09:57:14;13.07;;;8.83;;
14139;SDS011;7150;53.514;9.988;2024-03-02T09:59:40;14.70;;;9.10;;
14139;SDS011;7150;53.514;9.988;2024-03-02T10:02:05;17.07;;;10.93;;
14139;SDS011;7150;53.514;9.988;2024-03-02T10:04:32;14.67;;;9.37;;
14139;SDS011;7150;53.514;9.988;2024-03-02T10:07:11;15.17;;;10.07;;
14139;SDS011;7150;53.514;9.988;2024-03-02T10:09:44;14.60;;;9.40;;
14139;SDS011;7150;53.514;9.988;2024-03-02T10:12:11;18.10;;;10.67;;
14139;SDS011;7150;53.514;9.988;2024-03-02T10:14:38;13.13;;;8.83;;
14139;SDS011;7150;53.514;9.988;2024-03-02T10:17:05;12.43;;;8.80;;
14139;SDS011;7150;53.514;9.988;2024-03-02T10:19:31;14.10;;;8.60;;
14139;SDS011;7150;53.514;9.988;2024-03-02T10:21:59;13.40;;;9.03;;
14139;SDS011;7150;53.514;9.988;2024-03-02T10:24:25;13.80;;;8.50;;
14139;SDS011;7150;53.514;9.988;2024-03-02T10:26:51;13.77;;;9.00;;
14139;SDS011;7150;53.514;9.988;2024-03-02T10:29:17;10.73;;;8.30;;
14139;SDS011;7150;53.514;9.988;2024-03-02T10:31:43;12.93;;;8.67;;
14139;SDS011;7150;53.514;9.988;2024-03-02T10:34:11;12.03;;;7.27;;
14139;SDS011;7150;53.514;9.988;2024-03-02T10:36:37;12.23;;;7.37;;
14139;SDS011;7150;53.514;9.988;2024-03-02T10:39:06;11.90;;;7.33;;
14139;SDS011;7150;53.514;9.988;2024-03-02T10:41:35;10.87;;;6.60;;
14139;SDS011;7150;53.514;9.988;2024-03-02T10:44:03;10.77;;;6.33;;
14139;SDS011;7150;53.514;9.988;2024-03-02T10:46:30;11.10;;;6.17;;
14139;SDS011;7150;53.514;9.988;2024-03-02T10:48:58;7.77;;;5.77;;
14139;SDS011;7150;53.514;9.988;2024-03-02T10:51:25;10.10;;;6.20;;
14139;SDS011;7150;53.514;9.988;2024-03-02T10:53:57;9.10;;;5.90;;
14139;SDS011;7150;53.514;9.988;2024-03-02T10:56:28;8.57;;;6.13;;
14139;SDS011;7150;53.514;9.988;2024-03-02T10:59:01;8.30;;;5.90;;
14139;SDS011;7150;53.514;9.988;2024-03-02T11:01:36;8.37;;;6.13;;
14139;SDS011;7150;53.514;9.988;2024-03-02T11:04:04;9.70;;;5.80;;
14139;SDS011;7150;53.514;9.988;2024-03-02T11:06:33;10.73;;;6.43;;
14139;SDS011;7150;53.514;9.988;2024-03-02T11:09:03;9.33;;;6.57;;
14139;SDS011;7150;53.514;9.988;2024-03-02T11:11:33;9.60;;;6.17;;
14139;SDS011;7150;53.514;9.988;2024-03-02T11:14:02;7.90;;;6.00;;
14139;SDS011;7150;53.514;9.988;2024-03-02T11:16:37;9.23;;;6.17;;
14139;SDS011;7150;53.514;9.988;2024-03-02T11:19:04;7.93;;;5.67;;
14139;SDS011;7150;53.514;9.988;2024-03-02T11:21:35;7.47;;;5.33;;
14139;SDS011;7150;53.514;9.988;2024-03-02T11:24:26;7.43;;;4.90;;
14139;SDS011;7150;53.514;9.988;2024-03-02T11:26:46;10.17;;;5.90;;
14139;SDS011;7150;53.514;9.988;2024-03-02T11:32:06;7.80;;;5.70;;
14139;SDS011;7150;53.514;9.988;2024-03-02T11:34:39;7.47;;;5.23;;
14139;SDS011;7150;53.514;9.988;2024-03-02T11:37:10;7.43;;;5.47;;
14139;SDS011;7150;53.514;9.988;2024-03-02T11:39:36;6.80;;;5.03;;
14139;SDS011;7150;53.514;9.988;2024-03-02T11:42:05;7.37;;;5.00;;
14139;SDS011;7150;53.514;9.988;2024-03-02T11:44:35;6.70;;;4.70;;
14139;SDS011;7150;53.514;9.988;2024-03-02T11:47:03;9.47;;;5.80;;
14139;SDS011;7150;53.514;9.988;2024-03-02T11:49:38;8.13;;;4.93;;
14139;SDS011;7150;53.514;9.988;2024-03-02T11:52:05;7.33;;;5.03;;
14139;SDS011;7150;53.514;9.988;2024-03-02T11:54:35;7.83;;;5.00;;
14139;SDS011;7150;53.514;9.988;2024-03-02T11:57:06;7.93;;;5.13;;
14139;SDS011;7150;53.514;9.988;2024-03-02T11:59:33;8.40;;;4.77;;
14139;SDS011;7150;53.514;9.988;2024-03-02T12:01:58;7.83;;;4.80;;
14139;SDS011;7150;53.514;9.988;2024-03-02T12:04:25;6.60;;;5.07;;
14139;SDS011;7150;53.514;9.988;2024-03-02T12:06:54;6.80;;;4.67;;
14139;SDS011;7150;53.514;9.988;2024-03-02T12:09:21;7.03;;;5.00;;
14139;SDS011;7150;53.514;9.988;2024-03-02T12:11:46;7.60;;;4.90;;
14139;SDS011;7150;53.514;9.988;2024-03-02T12:14:12;8.30;;;4.83;;
14139;SDS011;7150;53.514;9.988;2024-03-02T12:16:38;6.70;;;4.27;;
14139;SDS011;7150;53.514;9.988;2024-03-02T12:19:05;8.50;;;5.20;;
14139;SDS011;7150;53.514;9.988;2024-03-02T12:21:31;9.10;;;4.30;;
14139;SDS011;7150;53.514;9.988;2024-03-02T12:23:56;9.13;;;5.07;;
14139;SDS011;7150;53.514;9.988;2024-03-02T12:26:22;9.07;;;5.47;;
14139;SDS011;7150;53.514;9.988;2024-03-02T12:28:48;7.50;;;5.00;;
14139;SDS011;7150;53.514;9.988;2024-03-02T12:31:14;9.17;;;4.43;;
14139;SDS011;7150;53.514;9.988;2024-03-02T12:33:40;6.07;;;4.00;;
14139;SDS011;7150;53.514;9.988;2024-03-02T12:36:09;5.47;;;4.20;;
14139;SDS011;7150;53.514;9.988;2024-03-02T12:38:36;4.87;;;3.87;;
14139;SDS011;7150;53.514;9.988;2024-03-02T12:41:02;5.93;;;4.33;;
14139;SDS011;7150;53.514;9.988;2024-03-02T12:43:31;5.53;;;3.90;;
14139;SDS011;7150;53.514;9.988;2024-03-02T12:45:56;6.60;;;3.80;;
14139;SDS011;7150;53.514;9.988;2024-03-02T12:48:23;5.37;;;3.47;;
14139;SDS011;7150;53.514;9.988;2024-03-02T12:50:49;6.57;;;3.80;;
14139;SDS011;7150;53.514;9.988;2024-03-02T12:53:15;5.87;;;3.67;;
14139;SDS011;7150;53.514;9.988;2024-03-02T12:55:41;5.47;;;3.73;;
14139;SDS011;7150;53.514;9.988;2024-03-02T12:58:08;5.30;;;3.77;;
14139;SDS011;7150;53.514;9.988;2024-03-02T13:00:33;5.93;;;4.00;;
14139;SDS011;7150;53.514;9.988;2024-03-02T13:03:00;5.70;;;3.97;;
14139;SDS011;7150;53.514;9.988;2024-03-02T13:05:31;6.27;;;3.90;;
14139;SDS011;7150;53.514;9.988;2024-03-02T13:07:58;6.23;;;4.13;;
14139;SDS011;7150;53.514;9.988;2024-03-02T13:10:24;6.67;;;4.80;;
14139;SDS011;7150;53.514;9.988;2024-03-02T13:12:50;7.07;;;4.73;;
14139;SDS011;7150;53.514;9.988;2024-03-02T13:15:16;6.73;;;4.77;;
14139;SDS011;7150;53.514;9.988;2024-03-02T13:17:41;6.13;;;4.20;;
14139;SDS011;7150;53.514;9.988;2024-03-02T13:20:07;6.20;;;4.00;;
14139;SDS011;7150;53.514;9.988;2024-03-02T13:22:35;7.90;;;4.37;;
14139;SDS011;7150;53.514;9.988;2024-03-02T13:25:01;7.10;;;4.47;;
14139;SDS011;7150;53.514;9.988;2024-03-02T13:27:29;6.57;;;4.30;;
14139;SDS011;7150;53.514;9.988;2024-03-02T13:29:55;7.50;;;4.50;;
14139;SDS011;7150;53.514;9.988;2024-03-02T13:32:20;5.73;;;4.23;;
14139;SDS011;7150;53.514;9.988;2024-03-02T13:34:48;5.97;;;4.03;;
14139;SDS011;7150;53.514;9.988;2024-03-02T13:37:14;5.73;;;4.00;;
14139;SDS011;7150;53.514;9.988;2024-03-02T13:39:40;7.07;;;4.57;;
14139;SDS011;7150;53.514;9.988;2024-03-02T13:42:07;6.10;;;4.47;;
14139;SDS011;7150;53.514;9.988;2024-03-02T13:44:33;7.70;;;4.77;;
14139;SDS011;7150;53.514;9.988;2024-03-02T13:47:00;8.03;;;5.03;;
14139;SDS011;7150;53.514;9.988;2024-03-02T13:49:26;6.73;;;4.70;;
14139;SDS011;7150;53.514;9.988;2024-03-02T13:52:08;8.17;;;4.67;;
14139;SDS011;7150;53.514;9.988;2024-03-02T13:54:38;7.63;;;5.10;;
14139;SDS011;7150;53.514;9.988;2024-03-02T13:57:05;6.70;;;4.57;;
14139;SDS011;7150;53.514;9.988;2024-03-02T13:59:31;8.53;;;5.07;;
14139;SDS011;7150;53.514;9.988;2024-03-02T14:01:56;7.47;;;5.17;;
14139;SDS011;7150;53.514;9.988;2024-03-02T14:04:22;8.23;;;5.40;;
14139;SDS011;7150;53.514;9.988;2024-03-02T14:06:48;8.80;;;5.60;;
14139;SDS011;7150;53.514;9.988;2024-03-02T14:09:13;7.13;;;5.07;;
14139;SDS011;7150;53.514;9.988;2024-03-02T14:11:39;7.10;;;4.30;;
14139;SDS011;7150;53.514;9.988;2024-03-02T14:14:04;7.63;;;5.53;;
14139;SDS011;7150;53.514;9.988;2024-03-02T14:16:30;7.73;;;4.80;;
14139;SDS011;7150;53.514;9.988;2024-03-02T14:18:55;7.27;;;4.13;;
14139;SDS011;7150;53.514;9.988;2024-03-02T14:21:21;8.07;;;5.07;;
14139;SDS011;7150;53.514;9.988;2024-03-02T14:23:46;7.60;;;4.73;;
14139;SDS011;7150;53.514;9.988;2024-03-02T14:26:12;6.13;;;4.60;;
14139;SDS011;7150;53.514;9.988;2024-03-02T14:28:38;6.87;;;4.33;;
14139;SDS011;7150;53.514;9.988;2024-03-02T14:31:03;6.13;;;4.57;;
14139;SDS011;7150;53.514;9.988;2024-03-02T14:33:29;7.07;;;4.73;;
14139;SDS011;7150;53.514;9.988;2024-03-02T14:35:55;9.93;;;5.57;;
14139;SDS011;7150;53.514;9.988;2024-03-02T14:38:22;7.63;;;4.63;;
14139;SDS011;7150;53.514;9.988;2024-03-02T14:40:47;6.00;;;4.13;;
14139;SDS011;7150;53.514;9.988;2024-03-02T14:43:13;6.27;;;4.27;;
14139;SDS011;7150;53.514;9.988;2024-03-02T14:45:38;6.17;;;4.40;;
14139;SDS011;7150;53.514;9.988;2024-03-02T14:48:04;5.93;;;4.23;;